Aérodrome :
LOGIN :

S'inscrire | Disclaimer

   EN    FR    IT 

 










Légende :    VFR   VFR Marginal   IFR   IFR Intensif   IFR Très Intensif
Visi : 
Plafond : 
>= 8 km
>= 3000ft
5 à 8 km
1000 à 3000 ft
1500m à 5 km
500 à 1000 ft
800 à 1500m
200 à 500 ft
< 800m
< 200 ft
Symboles :   Orages  Brouillard  Fortes neiges  Fortes précipitations  Vent > 20 kt
SIGMETs :   Divers  Orages  Givrage  Turbulence  Onde Orograph.  Cendres Volcan.







- Altitude de l'aérodrome : 24 ft
- Code IATA : SGD


EKSB - Sonderborg

DERNIER METAR :
  • 162320Z AUTO 15005KT 2000NDV BR BKN120/// 14/14 Q1016

METARs EXPIRÉS :
  • 162250Z AUTO 15006KT 1800NDV BR NCD 14/14 Q1016
  • 162220Z AUTO 14007KT 1700NDV BR NCD 14/14 Q1017
  • 162150Z AUTO 14006KT 1900NDV BR NCD 14/14 Q1017
  • 162120Z AUTO 15008KT 2000NDV BR FEW150/// 15/15 Q1017
  • 162050Z AUTO 15008KT 2300NDV BR BKN150/// 15/15 Q1017

Prévision TAF périmée.
Pas de NOTAMs connus pour ce terrain.



MET'MAP, la Météo Aéronautique d'un coup d'oeil ! - Copyright ORBIFLY Décembre 2007 - Disclaimer

ORBIFLY MET'MAP TEAM :

Programmation & Développement : Alexandra Zaïnal
Conception & Développement : Baudouin d'Aumeries
Co-Programmation & Développement : Marc-Olivier Méhu
Soutien technique & logistique : Manuel Goepfert

Contact : metmap@orbifly.com




SOURCES & CREDITS :

   NOAA